createdAt,value
2023-02-08T00:01:06.922Z,99.90
2023-02-08T00:03:34.141Z,99.90
2023-02-08T00:06:01.389Z,99.90
2023-02-08T00:08:28.633Z,99.90
2023-02-08T00:10:55.805Z,99.90
2023-02-08T00:13:23.358Z,99.90
2023-02-08T00:15:54.045Z,99.90
2023-02-08T00:18:22.738Z,99.90
2023-02-08T00:20:50.434Z,99.90
2023-02-08T00:23:18.367Z,99.90
2023-02-08T00:25:45.514Z,99.90
2023-02-08T00:28:15.614Z,99.90
2023-02-08T00:30:43.724Z,99.90
2023-02-08T00:33:11.777Z,99.90
2023-02-08T00:35:41.055Z,99.90
2023-02-08T00:38:08.251Z,99.90
2023-02-08T00:40:35.692Z,99.90
2023-02-08T00:43:02.985Z,99.90
2023-02-08T00:45:33.257Z,99.90
2023-02-08T00:48:00.567Z,99.90
2023-02-08T00:50:27.836Z,99.90
2023-02-08T00:52:55.030Z,99.90
2023-02-08T00:55:22.158Z,99.90
2023-02-08T00:57:49.347Z,99.90
2023-02-08T01:00:16.886Z,99.90
2023-02-08T01:02:44.062Z,99.90
2023-02-08T01:05:11.622Z,99.90
2023-02-08T01:07:40.307Z,99.90
2023-02-08T01:10:12.261Z,99.90
2023-02-08T01:12:39.629Z,99.90
2023-02-08T01:15:07.678Z,99.90
2023-02-08T01:17:34.821Z,99.90
2023-02-08T01:20:01.947Z,99.90
2023-02-08T01:22:30.388Z,99.90
2023-02-08T01:24:57.561Z,99.90
2023-02-08T01:27:24.670Z,99.90
2023-02-08T01:29:52.755Z,99.90
2023-02-08T01:32:20.068Z,99.90
2023-02-08T01:34:47.540Z,99.90
2023-02-08T01:37:14.888Z,99.90
2023-02-08T01:39:42.087Z,99.90
2023-02-08T01:42:15.146Z,99.90
2023-02-08T01:45:29.809Z,99.90
2023-02-08T01:48:06.006Z,99.90
2023-02-08T01:50:55.906Z,99.90
2023-02-08T01:53:26.174Z,99.90
2023-02-08T01:55:57.760Z,99.90
2023-02-08T01:58:27.872Z,99.90
2023-02-08T02:00:55.058Z,99.90
2023-02-08T02:03:23.883Z,99.90
2023-02-08T02:06:00.453Z,99.90
2023-02-08T02:08:27.936Z,99.90
2023-02-08T02:10:54.973Z,99.90
2023-02-08T02:13:25.473Z,99.90
2023-02-08T02:15:54.956Z,99.90
2023-02-08T02:18:30.564Z,99.90
2023-02-08T02:21:31.795Z,99.90
2023-02-08T02:24:17.588Z,99.90
2023-02-08T02:27:24.620Z,99.90
2023-02-08T02:30:34.564Z,99.90
2023-02-08T02:33:17.570Z,99.90
2023-02-08T02:36:16.347Z,99.90
2023-02-08T02:39:05.222Z,99.90
2023-02-08T02:42:17.354Z,99.90
2023-02-08T02:45:37.846Z,99.90
2023-02-08T02:48:20.556Z,99.90
2023-02-08T02:51:18.354Z,99.90
2023-02-08T02:54:21.586Z,99.90
2023-02-08T02:56:54.850Z,99.90
2023-02-08T02:59:22.800Z,99.90
2023-02-08T03:01:50.054Z,99.90
2023-02-08T03:04:40.225Z,99.90
2023-02-08T03:07:16.301Z,99.90
2023-02-08T03:10:05.654Z,99.90
2023-02-08T03:12:53.580Z,99.90
2023-02-08T03:15:54.414Z,99.90
2023-02-08T03:18:56.026Z,99.90
2023-02-08T03:21:51.495Z,99.90
2023-02-08T03:24:48.804Z,99.90
2023-02-08T03:28:06.298Z,99.90
2023-02-08T03:31:06.206Z,99.90
2023-02-08T03:33:46.477Z,99.90
2023-02-08T03:36:36.673Z,99.90
2023-02-08T03:39:12.850Z,99.90
2023-02-08T03:41:44.926Z,99.90
2023-02-08T03:44:38.706Z,99.90
2023-02-08T03:47:17.608Z,99.90
2023-02-08T03:49:49.403Z,99.90
2023-02-08T03:52:17.070Z,99.90
2023-02-08T03:54:53.523Z,99.90
2023-02-08T03:57:29.394Z,99.90
2023-02-08T04:00:06.536Z,99.90
2023-02-08T04:02:55.793Z,99.90
2023-02-08T04:05:24.590Z,99.90
2023-02-08T04:07:52.759Z,99.90
2023-02-08T04:10:20.614Z,99.90
2023-02-08T04:12:49.006Z,99.90
2023-02-08T04:15:17.155Z,99.90
2023-02-08T04:17:44.409Z,99.90
2023-02-08T04:20:12.021Z,99.90
2023-02-08T04:22:39.239Z,99.90
2023-02-08T04:25:06.775Z,99.90
2023-02-08T04:27:33.935Z,99.90
2023-02-08T04:30:01.202Z,99.90
2023-02-08T04:32:28.267Z,99.90
2023-02-08T04:34:55.317Z,99.90
2023-02-08T04:37:22.592Z,99.90
2023-02-08T04:39:49.738Z,99.90
2023-02-08T04:42:16.915Z,99.90
2023-02-08T04:44:44.025Z,99.90
2023-02-08T04:47:11.145Z,99.90
2023-02-08T04:49:38.226Z,99.90
2023-02-08T04:52:05.741Z,99.90
2023-02-08T04:54:33.663Z,99.90
2023-02-08T04:57:00.757Z,99.90
2023-02-08T04:59:27.997Z,99.90
2023-02-08T05:01:55.178Z,99.90
2023-02-08T05:04:22.271Z,99.90
2023-02-08T05:06:49.337Z,99.90
2023-02-08T05:09:16.435Z,99.90
2023-02-08T05:11:43.570Z,99.90
2023-02-08T05:14:10.664Z,99.90
2023-02-08T05:16:37.760Z,99.90
2023-02-08T05:19:04.816Z,99.90
2023-02-08T05:21:31.973Z,99.90
2023-02-08T05:23:59.061Z,99.90
2023-02-08T05:26:26.140Z,99.90
2023-02-08T05:28:53.317Z,99.90
2023-02-08T05:31:24.705Z,99.90
2023-02-08T05:33:53.137Z,99.90
2023-02-08T05:36:21.274Z,99.90
2023-02-08T05:38:48.342Z,99.90
2023-02-08T05:41:16.900Z,99.90
2023-02-08T05:43:43.966Z,99.90
2023-02-08T05:46:11.077Z,99.90
2023-02-08T05:48:38.497Z,99.90
2023-02-08T05:51:05.699Z,99.90
2023-02-08T05:53:32.831Z,99.90
2023-02-08T05:56:00.154Z,99.90
2023-02-08T05:58:28.256Z,99.90
2023-02-08T06:00:55.442Z,99.90
2023-02-08T06:03:22.640Z,99.90
2023-02-08T06:05:49.746Z,99.90
2023-02-08T06:08:16.885Z,99.90
2023-02-08T06:10:45.799Z,99.90
2023-02-08T06:13:12.996Z,99.90
2023-02-08T06:15:40.392Z,99.90
2023-02-08T06:18:09.254Z,99.90
2023-02-08T06:20:36.724Z,99.90
2023-02-08T06:23:04.660Z,99.90
2023-02-08T06:25:32.196Z,99.90
2023-02-08T06:27:59.326Z,99.90
2023-02-08T06:30:26.541Z,99.90
2023-02-08T06:32:53.643Z,99.90
2023-02-08T06:35:20.888Z,99.90
2023-02-08T06:37:48.080Z,99.90
2023-02-08T06:40:15.309Z,99.90
2023-02-08T06:42:43.200Z,99.90
2023-02-08T06:45:13.312Z,99.90
2023-02-08T06:47:40.997Z,99.90
2023-02-08T06:50:09.201Z,99.90
2023-02-08T06:52:37.567Z,99.90
2023-02-08T06:55:05.305Z,99.90
2023-02-08T06:57:32.467Z,99.90
2023-02-08T07:00:00.168Z,99.90
2023-02-08T07:02:27.773Z,99.90
2023-02-08T07:04:55.037Z,99.90
2023-02-08T07:07:22.173Z,99.90
2023-02-08T07:09:49.213Z,99.90
2023-02-08T07:12:16.710Z,99.90
2023-02-08T07:14:44.712Z,99.90
2023-02-08T07:17:13.305Z,99.90
2023-02-08T07:19:40.894Z,99.90
2023-02-08T07:22:08.356Z,99.90
2023-02-08T07:24:40.658Z,99.90
2023-02-08T07:27:10.730Z,99.90
2023-02-08T07:29:38.592Z,99.90
2023-02-08T07:32:07.878Z,99.90
2023-02-08T07:34:36.931Z,99.90
2023-02-08T07:37:04.473Z,99.90
2023-02-08T07:39:31.719Z,99.90
2023-02-08T07:41:59.253Z,99.90
2023-02-08T07:44:30.270Z,99.90
2023-02-08T07:46:57.344Z,99.90
2023-02-08T07:49:24.514Z,99.90
2023-02-08T07:51:51.721Z,99.90
2023-02-08T07:54:18.819Z,99.90
2023-02-08T07:56:46.031Z,99.90
2023-02-08T07:59:14.738Z,99.90
2023-02-08T08:01:42.045Z,99.90
2023-02-08T08:04:09.487Z,99.90
2023-02-08T08:06:36.700Z,99.90
2023-02-08T08:09:04.018Z,99.90
2023-02-08T08:11:31.613Z,99.90
2023-02-08T08:13:58.751Z,99.90
2023-02-08T08:16:26.009Z,99.90
2023-02-08T08:18:53.370Z,99.90
2023-02-08T08:21:20.588Z,99.90
2023-02-08T08:23:47.825Z,99.90
2023-02-08T08:26:19.497Z,99.90
2023-02-08T08:28:47.570Z,99.90
2023-02-08T08:31:21.498Z,99.90
2023-02-08T08:33:49.395Z,99.90
2023-02-08T08:36:16.609Z,99.90
2023-02-08T08:38:43.936Z,99.90
2023-02-08T08:41:17.817Z,99.90
2023-02-08T08:43:45.385Z,99.90
2023-02-08T08:46:12.600Z,99.90
2023-02-08T08:48:39.893Z,99.90
2023-02-08T08:51:07.803Z,99.90
2023-02-08T08:53:36.953Z,99.90
2023-02-08T08:56:05.031Z,99.90
2023-02-08T08:58:32.119Z,99.90
2023-02-08T09:01:00.540Z,99.90
2023-02-08T09:03:29.004Z,99.90
2023-02-08T09:05:56.326Z,99.90
2023-02-08T09:08:23.542Z,99.90
2023-02-08T09:10:50.716Z,99.90
2023-02-08T09:13:21.839Z,99.90
2023-02-08T09:15:49.560Z,99.90
2023-02-08T09:18:17.253Z,99.90
2023-02-08T09:20:44.888Z,99.90
2023-02-08T09:23:12.807Z,99.90
2023-02-08T09:25:40.146Z,99.90
2023-02-08T09:28:07.303Z,99.90
2023-02-08T09:30:34.598Z,99.90
2023-02-08T09:33:01.682Z,99.90
2023-02-08T09:35:28.774Z,99.90
2023-02-08T09:37:58.148Z,99.90
2023-02-08T09:40:30.220Z,99.90
2023-02-08T09:43:13.221Z,99.90
2023-02-08T09:46:09.750Z,99.90
2023-02-08T09:48:40.110Z,99.90
2023-02-08T09:51:16.145Z,99.90
2023-02-08T09:53:50.909Z,99.90
2023-02-08T09:56:26.851Z,99.90
2023-02-08T09:58:54.876Z,99.90
2023-02-08T10:01:30.063Z,99.90
2023-02-08T10:04:14.391Z,99.90
2023-02-08T10:06:41.709Z,99.90
2023-02-08T10:09:14.644Z,99.90
2023-02-08T10:12:04.014Z,99.90
2023-02-08T10:14:55.383Z,99.90
2023-02-08T10:17:50.923Z,99.90
2023-02-08T10:20:43.327Z,99.90
2023-02-08T10:23:27.370Z,99.90
2023-02-08T10:26:14.007Z,99.90
2023-02-08T10:29:12.201Z,99.90
2023-02-08T10:32:13.729Z,99.90
2023-02-08T10:34:54.383Z,99.90
2023-02-08T10:37:32.508Z,99.90
2023-02-08T10:40:18.887Z,99.90
2023-02-08T10:42:52.752Z,99.90
2023-02-08T10:45:43.365Z,99.90
2023-02-08T10:48:28.135Z,99.90
2023-02-08T10:50:58.569Z,99.90
2023-02-08T10:53:26.667Z,99.90
2023-02-08T10:55:54.133Z,99.90
2023-02-08T10:58:26.451Z,99.90
2023-02-08T11:00:54.878Z,99.90
2023-02-08T11:03:28.330Z,99.90
2023-02-08T11:05:56.158Z,99.90
2023-02-08T11:08:26.927Z,99.90
2023-02-08T11:11:07.861Z,99.90
2023-02-08T11:13:42.818Z,99.90
2023-02-08T11:16:25.429Z,99.90
2023-02-08T11:19:01.307Z,99.90
2023-02-08T11:21:39.344Z,99.90
2023-02-08T11:24:15.402Z,99.90
2023-02-08T11:26:43.655Z,99.90
2023-02-08T11:29:30.765Z,99.90
2023-02-08T11:32:02.443Z,99.90
2023-02-08T11:34:35.974Z,99.90
2023-02-08T11:37:13.971Z,99.90
2023-02-08T11:39:49.744Z,99.90
2023-02-08T11:42:30.323Z,99.90
2023-02-08T11:44:59.904Z,99.90
2023-02-08T11:47:32.417Z,99.90
2023-02-08T11:50:04.119Z,99.10
2023-02-08T11:52:39.321Z,98.20
2023-02-08T11:55:26.060Z,97.00
2023-02-08T11:57:58.744Z,96.30
2023-02-08T12:00:38.151Z,95.80
2023-02-08T12:03:24.373Z,95.00
2023-02-08T12:06:37.895Z,94.00
2023-02-08T12:09:42.729Z,93.70
2023-02-08T12:12:42.615Z,93.00
2023-02-08T12:15:57.382Z,92.10
2023-02-08T12:19:01.997Z,91.30
2023-02-08T12:21:41.313Z,90.30
2023-02-08T12:24:30.266Z,89.90
2023-02-08T12:27:31.073Z,90.50
2023-02-08T12:30:22.894Z,90.40
2023-02-08T12:33:29.248Z,90.30
2023-02-08T12:36:17.167Z,88.70
2023-02-08T12:39:50.738Z,88.70
2023-02-08T12:42:53.885Z,87.50
2023-02-08T12:45:48.977Z,88.20
2023-02-08T12:48:31.178Z,83.80
2023-02-08T12:51:23.220Z,83.90
2023-02-08T12:53:58.623Z,81.50
2023-02-08T12:56:32.801Z,80.70
2023-02-08T12:59:13.105Z,81.10
2023-02-08T13:01:46.783Z,80.20
2023-02-08T13:04:26.171Z,79.30
2023-02-08T13:06:59.723Z,81.60
2023-02-08T13:09:35.215Z,81.90
2023-02-08T13:12:31.272Z,83.20
2023-02-08T13:15:30.466Z,82.80
2023-02-08T13:18:30.485Z,81.30
2023-02-08T13:21:03.474Z,79.10
2023-02-08T13:23:52.089Z,78.40
2023-02-08T13:26:33.729Z,78.60
2023-02-08T13:29:02.904Z,80.70
2023-02-08T13:31:42.502Z,81.40
2023-02-08T13:34:34.278Z,79.40
2023-02-08T13:37:16.535Z,78.20
2023-02-08T13:39:49.081Z,77.50
2023-02-08T13:42:42.857Z,78.10
2023-02-08T13:45:23.778Z,77.10
2023-02-08T13:48:00.977Z,79.60
2023-02-08T13:50:49.187Z,80.20
2023-02-08T13:53:19.775Z,80.60
2023-02-08T13:55:56.224Z,79.90
2023-02-08T13:58:46.273Z,78.80
2023-02-08T14:01:19.848Z,78.80
2023-02-08T14:04:07.304Z,77.80
2023-02-08T14:06:44.442Z,79.80
2023-02-08T14:10:03.345Z,80.10
2023-02-08T14:13:15.764Z,81.20
2023-02-08T14:15:44.125Z,80.20
2023-02-08T14:18:27.804Z,79.90
2023-02-08T14:21:06.782Z,78.50
2023-02-08T14:23:39.546Z,77.70
2023-02-08T14:26:20.760Z,79.10
2023-02-08T14:28:57.271Z,78.70
2023-02-08T14:31:41.865Z,75.40
2023-02-08T14:34:34.910Z,76.70
2023-02-08T14:37:18.026Z,77.80
2023-02-08T14:39:45.613Z,79.00
2023-02-08T14:42:14.376Z,79.80
2023-02-08T14:44:42.279Z,81.80
2023-02-08T14:47:24.337Z,80.20
2023-02-08T14:50:31.663Z,80.50
2023-02-08T14:53:03.531Z,81.40
2023-02-08T14:55:39.821Z,82.00
2023-02-08T14:58:08.584Z,83.00
2023-02-08T15:00:39.074Z,85.90
2023-02-08T15:03:14.833Z,89.10
2023-02-08T15:05:58.828Z,90.90
2023-02-08T15:08:27.189Z,91.80
2023-02-08T15:10:55.914Z,93.20
2023-02-08T15:13:25.131Z,94.20
2023-02-08T15:15:58.681Z,95.30
2023-02-08T15:18:30.667Z,96.10
2023-02-08T15:21:20.822Z,97.00
2023-02-08T15:24:22.645Z,97.90
2023-02-08T15:26:53.900Z,98.70
2023-02-08T15:29:42.757Z,99.20
2023-02-08T15:32:19.170Z,99.70
2023-02-08T15:34:58.252Z,99.90
2023-02-08T15:37:27.895Z,99.90
2023-02-08T15:39:58.530Z,99.90
2023-02-08T15:42:29.821Z,99.90
2023-02-08T15:45:00.675Z,99.90
2023-02-08T15:47:38.034Z,99.90
2023-02-08T15:50:08.543Z,99.90
2023-02-08T15:52:37.373Z,99.90
2023-02-08T15:55:08.930Z,99.90
2023-02-08T15:58:03.729Z,99.90
2023-02-08T16:00:35.198Z,99.90
2023-02-08T16:03:19.346Z,99.90
2023-02-08T16:05:58.059Z,99.90
2023-02-08T16:08:29.904Z,99.90
2023-02-08T16:11:04.626Z,99.90
2023-02-08T16:13:39.217Z,99.90
2023-02-08T16:16:37.557Z,99.90
2023-02-08T16:19:29.940Z,99.90
2023-02-08T16:22:21.515Z,99.90
2023-02-08T16:24:50.996Z,99.90
2023-02-08T16:27:29.995Z,99.90
2023-02-08T16:29:59.982Z,99.90
2023-02-08T16:32:39.531Z,99.90
2023-02-08T16:35:15.742Z,99.90
2023-02-08T16:37:43.275Z,99.90
2023-02-08T16:40:51.531Z,99.90
2023-02-08T16:43:28.971Z,99.90
2023-02-08T16:46:11.898Z,99.90
2023-02-08T16:48:44.619Z,99.90
2023-02-08T16:51:29.467Z,99.90
2023-02-08T16:54:11.657Z,99.90
2023-02-08T16:56:40.168Z,99.90
2023-02-08T16:59:09.072Z,99.90
2023-02-08T17:01:38.451Z,99.90
2023-02-08T17:04:06.411Z,99.90
2023-02-08T17:06:37.150Z,99.90
2023-02-08T17:09:08.170Z,99.90
2023-02-08T17:11:36.596Z,99.90
2023-02-08T17:14:05.458Z,99.90
2023-02-08T17:16:35.078Z,99.90
2023-02-08T17:19:04.435Z,99.90
2023-02-08T17:21:32.160Z,99.90
2023-02-08T17:23:59.584Z,99.90
2023-02-08T17:26:32.639Z,99.90
2023-02-08T17:29:00.206Z,99.90
2023-02-08T17:31:29.738Z,99.90
2023-02-08T17:34:04.592Z,99.90
2023-02-08T17:36:36.576Z,99.90
2023-02-08T17:39:06.158Z,99.90
2023-02-08T17:41:34.065Z,99.90
2023-02-08T17:44:01.720Z,99.90
2023-02-08T17:46:33.165Z,99.90
2023-02-08T17:49:01.870Z,99.90
2023-02-08T17:51:33.174Z,99.90
2023-02-08T17:54:06.605Z,99.90
2023-02-08T17:56:35.586Z,99.90
2023-02-08T17:59:05.550Z,99.90
2023-02-08T18:01:33.687Z,99.90
2023-02-08T18:04:01.835Z,99.90
2023-02-08T18:06:29.198Z,99.90
2023-02-08T18:08:57.128Z,99.90
2023-02-08T18:11:24.534Z,99.90
2023-02-08T18:13:54.318Z,99.90
2023-02-08T18:16:27.160Z,99.90
2023-02-08T18:18:56.993Z,99.90
2023-02-08T18:21:33.017Z,99.90
2023-02-08T18:24:02.284Z,99.90
2023-02-08T18:26:33.234Z,99.90
2023-02-08T18:29:02.697Z,99.90
2023-02-08T18:31:30.672Z,99.90
2023-02-08T18:33:58.234Z,99.90
2023-02-08T18:36:25.819Z,99.90
2023-02-08T18:38:55.903Z,99.90
2023-02-08T18:41:28.133Z,99.90
2023-02-08T18:43:58.301Z,99.90
2023-02-08T18:46:28.737Z,99.90
2023-02-08T18:48:56.335Z,99.90
2023-02-08T18:51:25.940Z,99.90
2023-02-08T18:53:55.243Z,99.90
2023-02-08T18:56:27.393Z,99.90
2023-02-08T18:58:58.038Z,99.90
2023-02-08T19:01:25.547Z,99.90
2023-02-08T19:03:54.183Z,99.90
2023-02-08T19:06:25.464Z,99.90
2023-02-08T19:08:56.315Z,99.90
2023-02-08T19:11:31.203Z,99.90
2023-02-08T19:14:02.176Z,99.90
2023-02-08T19:16:31.860Z,99.90
2023-02-08T19:19:02.525Z,99.90
2023-02-08T19:21:32.086Z,99.90
2023-02-08T19:24:03.477Z,99.90
2023-02-08T19:26:39.915Z,99.90
2023-02-08T19:29:13.468Z,99.90
2023-02-08T19:31:42.049Z,99.90
2023-02-08T19:34:11.786Z,99.90
2023-02-08T19:36:52.077Z,99.90
2023-02-08T19:39:24.583Z,99.90
2023-02-08T19:41:55.218Z,99.90
2023-02-08T19:44:23.092Z,99.90
2023-02-08T19:46:55.404Z,99.90
2023-02-08T19:49:25.862Z,99.90
2023-02-08T19:51:53.496Z,99.90
2023-02-08T19:54:21.671Z,99.90
2023-02-08T19:56:54.648Z,99.90
2023-02-08T19:59:35.215Z,99.90
2023-02-08T20:02:05.091Z,99.90
2023-02-08T20:04:37.467Z,99.90
2023-02-08T20:07:07.139Z,99.90
2023-02-08T20:09:41.126Z,99.90
2023-02-08T20:12:08.588Z,99.90
2023-02-08T20:14:40.054Z,99.90
2023-02-08T20:17:10.052Z,99.90
2023-02-08T20:19:38.063Z,99.90
2023-02-08T20:22:05.331Z,99.90
2023-02-08T20:24:33.558Z,99.90
2023-02-08T20:27:05.514Z,99.90
2023-02-08T20:29:32.764Z,99.90
2023-02-08T20:32:00.002Z,99.90
2023-02-08T20:34:27.427Z,99.90
2023-02-08T20:37:06.826Z,99.90
2023-02-08T20:39:38.732Z,99.90
2023-02-08T20:42:09.880Z,99.90
2023-02-08T20:44:39.782Z,99.90
2023-02-08T20:47:06.999Z,99.90
2023-02-08T20:49:41.954Z,99.90
2023-02-08T20:52:09.124Z,99.90
2023-02-08T20:54:40.088Z,99.90
2023-02-08T20:57:19.434Z,99.90
2023-02-08T20:59:52.294Z,99.90
2023-02-08T21:02:22.495Z,99.90
2023-02-08T21:04:49.759Z,99.90
2023-02-08T21:07:21.684Z,99.90
2023-02-08T21:09:49.822Z,99.90
2023-02-08T21:12:19.312Z,99.90
2023-02-08T21:14:46.759Z,99.90
2023-02-08T21:17:18.646Z,99.90
2023-02-08T21:19:48.884Z,99.90
2023-02-08T21:22:17.108Z,99.90
2023-02-08T21:24:44.253Z,99.90
2023-02-08T21:27:13.687Z,99.90
2023-02-08T21:29:43.932Z,99.90
2023-02-08T21:32:14.448Z,99.90
2023-02-08T21:34:44.327Z,99.90
2023-02-08T21:37:13.694Z,99.90
2023-02-08T21:39:40.852Z,99.90
2023-02-08T21:42:08.129Z,99.90
2023-02-08T21:44:35.381Z,99.90
2023-02-08T21:47:02.687Z,99.90
2023-02-08T21:49:48.523Z,99.90
2023-02-08T21:52:36.903Z,99.90
2023-02-08T21:55:04.294Z,99.90
2023-02-08T21:57:37.859Z,99.90
2023-02-08T22:00:10.345Z,99.90
2023-02-08T22:02:40.481Z,99.90
2023-02-08T22:05:08.328Z,99.90
2023-02-08T22:07:54.515Z,99.90
2023-02-08T22:10:30.402Z,99.90
2023-02-08T22:12:58.450Z,99.90
2023-02-08T22:15:29.067Z,99.90
2023-02-08T22:18:00.158Z,99.90
2023-02-08T22:20:27.937Z,99.90
2023-02-08T22:22:55.521Z,99.90
2023-02-08T22:25:23.590Z,99.90
2023-02-08T22:27:50.777Z,99.90
2023-02-08T22:30:19.222Z,99.90
2023-02-08T22:32:48.091Z,99.90
2023-02-08T22:35:17.788Z,99.90
2023-02-08T22:37:45.366Z,99.90
2023-02-08T22:40:12.843Z,99.90
2023-02-08T22:42:40.863Z,99.90
2023-02-08T22:45:09.274Z,99.90
2023-02-08T22:47:36.856Z,99.90
2023-02-08T22:50:06.390Z,99.90
2023-02-08T22:52:34.584Z,99.90
2023-02-08T22:55:04.230Z,99.90
2023-02-08T22:57:34.053Z,99.90
2023-02-08T23:00:02.045Z,99.90
2023-02-08T23:02:29.410Z,99.90
2023-02-08T23:04:56.652Z,99.90
2023-02-08T23:07:23.890Z,99.90
2023-02-08T23:09:51.929Z,99.90
2023-02-08T23:12:19.112Z,99.90
2023-02-08T23:14:46.322Z,99.90
2023-02-08T23:17:13.725Z,99.90
2023-02-08T23:19:41.784Z,99.90
2023-02-08T23:22:09.164Z,99.90
2023-02-08T23:24:36.386Z,99.90
2023-02-08T23:27:03.584Z,99.90
2023-02-08T23:29:30.854Z,99.90
2023-02-08T23:31:58.042Z,99.90
2023-02-08T23:34:25.338Z,99.90
2023-02-08T23:36:52.565Z,99.90
2023-02-08T23:39:20.059Z,99.90
2023-02-08T23:41:47.281Z,99.90
2023-02-08T23:44:14.488Z,99.90
2023-02-08T23:46:41.653Z,99.90
2023-02-08T23:49:09.051Z,99.90
2023-02-08T23:51:36.429Z,99.90
2023-02-08T23:54:03.796Z,99.90
2023-02-08T23:56:33.906Z,99.90
2023-02-08T23:59:01.088Z,99.90
